sensor_id;sensor_type;location;lat;lon;timestamp;P1;durP1;ratioP1;P2;durP2;ratioP2
35022;SDS011;21214;44.912;8.204;2022-10-16T00:01:15;23.83;;;15.32;;
35022;SDS011;21214;44.912;8.204;2022-10-16T00:03:42;20.20;;;16.35;;
35022;SDS011;21214;44.912;8.204;2022-10-16T00:06:09;20.50;;;15.27;;
35022;SDS011;21214;44.912;8.204;2022-10-16T00:08:36;21.73;;;15.20;;
35022;SDS011;21214;44.912;8.204;2022-10-16T00:11:04;17.15;;;14.20;;
35022;SDS011;21214;44.912;8.204;2022-10-16T00:13:34;19.60;;;14.35;;
35022;SDS011;21214;44.912;8.204;2022-10-16T00:16:01;16.85;;;14.07;;
35022;SDS011;21214;44.912;8.204;2022-10-16T00:18:28;18.48;;;14.35;;
35022;SDS011;21214;44.912;8.204;2022-10-16T00:20:54;20.90;;;14.65;;
35022;SDS011;21214;44.912;8.204;2022-10-16T00:23:20;18.45;;;14.85;;
35022;SDS011;21214;44.912;8.204;2022-10-16T00:25:57;18.35;;;15.30;;
35022;SDS011;21214;44.912;8.204;2022-10-16T00:28:24;15.35;;;12.93;;
35022;SDS011;21214;44.912;8.204;2022-10-16T00:30:50;17.30;;;15.35;;
35022;SDS011;21214;44.912;8.204;2022-10-16T00:33:16;20.20;;;15.00;;
35022;SDS011;21214;44.912;8.204;2022-10-16T00:35:41;17.70;;;14.32;;
35022;SDS011;21214;44.912;8.204;2022-10-16T00:38:07;16.20;;;13.93;;
35022;SDS011;21214;44.912;8.204;2022-10-16T00:40:34;18.25;;;14.13;;
35022;SDS011;21214;44.912;8.204;2022-10-16T00:43:00;15.70;;;14.15;;
35022;SDS011;21214;44.912;8.204;2022-10-16T00:45:25;19.10;;;13.75;;
35022;SDS011;21214;44.912;8.204;2022-10-16T00:47:51;18.70;;;13.55;;
35022;SDS011;21214;44.912;8.204;2022-10-16T00:50:22;20.08;;;15.25;;
35022;SDS011;21214;44.912;8.204;2022-10-16T00:52:53;18.08;;;14.38;;
35022;SDS011;21214;44.912;8.204;2022-10-16T00:55:22;19.65;;;14.23;;
35022;SDS011;21214;44.912;8.204;2022-10-16T00:57:49;21.40;;;14.35;;
35022;SDS011;21214;44.912;8.204;2022-10-16T01:00:17;18.55;;;14.00;;
35022;SDS011;21214;44.912;8.204;2022-10-16T01:02:51;17.65;;;14.57;;
35022;SDS011;21214;44.912;8.204;2022-10-16T01:05:18;20.08;;;15.05;;
35022;SDS011;21214;44.912;8.204;2022-10-16T01:07:47;24.35;;;15.88;;
35022;SDS011;21214;44.912;8.204;2022-10-16T01:13:06;18.10;;;14.93;;
35022;SDS011;21214;44.912;8.204;2022-10-16T01:18:38;17.77;;;14.52;;
35022;SDS011;21214;44.912;8.204;2022-10-16T01:29:09;20.60;;;17.02;;
35022;SDS011;21214;44.912;8.204;2022-10-16T01:31:38;25.90;;;18.83;;
35022;SDS011;21214;44.912;8.204;2022-10-16T01:34:08;20.58;;;15.45;;
35022;SDS011;21214;44.912;8.204;2022-10-16T01:36:37;19.17;;;15.80;;
35022;SDS011;21214;44.912;8.204;2022-10-16T01:39:06;19.95;;;16.25;;
35022;SDS011;21214;44.912;8.204;2022-10-16T01:41:39;29.63;;;19.60;;
35022;SDS011;21214;44.912;8.204;2022-10-16T01:44:14;26.23;;;20.13;;
35022;SDS011;21214;44.912;8.204;2022-10-16T01:46:46;27.92;;;19.77;;
35022;SDS011;21214;44.912;8.204;2022-10-16T01:49:15;26.08;;;20.23;;
35022;SDS011;21214;44.912;8.204;2022-10-16T01:51:43;27.58;;;21.33;;
35022;SDS011;21214;44.912;8.204;2022-10-16T01:54:12;26.35;;;20.20;;
35022;SDS011;21214;44.912;8.204;2022-10-16T01:56:40;29.92;;;21.42;;
35022;SDS011;21214;44.912;8.204;2022-10-16T01:59:09;25.10;;;21.10;;
35022;SDS011;21214;44.912;8.204;2022-10-16T02:01:38;26.20;;;21.27;;
35022;SDS011;21214;44.912;8.204;2022-10-16T02:04:09;31.67;;;21.70;;
35022;SDS011;21214;44.912;8.204;2022-10-16T02:06:40;30.85;;;21.58;;
35022;SDS011;21214;44.912;8.204;2022-10-16T02:09:06;27.52;;;21.52;;
35022;SDS011;21214;44.912;8.204;2022-10-16T02:11:32;25.60;;;21.40;;
35022;SDS011;21214;44.912;8.204;2022-10-16T02:14:04;26.75;;;22.05;;
35022;SDS011;21214;44.912;8.204;2022-10-16T02:16:42;26.75;;;21.65;;
35022;SDS011;21214;44.912;8.204;2022-10-16T02:19:11;25.98;;;20.92;;
35022;SDS011;21214;44.912;8.204;2022-10-16T02:21:40;26.27;;;20.60;;
35022;SDS011;21214;44.912;8.204;2022-10-16T02:27:19;27.55;;;21.50;;
35022;SDS011;21214;44.912;8.204;2022-10-16T02:29:49;28.23;;;21.30;;
35022;SDS011;21214;44.912;8.204;2022-10-16T02:32:23;31.92;;;22.85;;
35022;SDS011;21214;44.912;8.204;2022-10-16T02:34:58;28.35;;;21.38;;
35022;SDS011;21214;44.912;8.204;2022-10-16T02:37:25;32.05;;;22.67;;
35022;SDS011;21214;44.912;8.204;2022-10-16T02:39:51;27.67;;;22.33;;
35022;SDS011;21214;44.912;8.204;2022-10-16T02:42:18;25.02;;;21.95;;
35022;SDS011;21214;44.912;8.204;2022-10-16T02:44:44;27.45;;;21.13;;
35022;SDS011;21214;44.912;8.204;2022-10-16T02:47:09;31.23;;;21.98;;
35022;SDS011;21214;44.912;8.204;2022-10-16T02:49:35;29.60;;;20.58;;
35022;SDS011;21214;44.912;8.204;2022-10-16T02:52:00;28.30;;;21.00;;
35022;SDS011;21214;44.912;8.204;2022-10-16T02:54:26;26.83;;;20.63;;
35022;SDS011;21214;44.912;8.204;2022-10-16T02:56:51;28.45;;;21.48;;
35022;SDS011;21214;44.912;8.204;2022-10-16T02:59:17;30.20;;;20.50;;
35022;SDS011;21214;44.912;8.204;2022-10-16T03:01:42;25.38;;;20.90;;
35022;SDS011;21214;44.912;8.204;2022-10-16T03:04:08;27.50;;;20.10;;
35022;SDS011;21214;44.912;8.204;2022-10-16T03:06:33;23.83;;;21.05;;
35022;SDS011;21214;44.912;8.204;2022-10-16T03:08:59;27.00;;;21.42;;
35022;SDS011;21214;44.912;8.204;2022-10-16T03:11:25;26.77;;;19.90;;
35022;SDS011;21214;44.912;8.204;2022-10-16T03:13:51;30.85;;;21.15;;
35022;SDS011;21214;44.912;8.204;2022-10-16T03:16:17;27.92;;;20.40;;
35022;SDS011;21214;44.912;8.204;2022-10-16T03:18:42;28.48;;;21.35;;
35022;SDS011;21214;44.912;8.204;2022-10-16T03:21:08;22.23;;;19.52;;
35022;SDS011;21214;44.912;8.204;2022-10-16T03:23:33;25.48;;;20.08;;
35022;SDS011;21214;44.912;8.204;2022-10-16T03:25:59;28.80;;;20.33;;
35022;SDS011;21214;44.912;8.204;2022-10-16T03:28:24;25.65;;;20.38;;
35022;SDS011;21214;44.912;8.204;2022-10-16T03:30:50;31.95;;;22.27;;
35022;SDS011;21214;44.912;8.204;2022-10-16T03:33:15;25.45;;;20.90;;
35022;SDS011;21214;44.912;8.204;2022-10-16T03:35:41;28.35;;;21.13;;
35022;SDS011;21214;44.912;8.204;2022-10-16T03:38:06;28.33;;;20.88;;
35022;SDS011;21214;44.912;8.204;2022-10-16T03:40:32;25.13;;;19.58;;
35022;SDS011;21214;44.912;8.204;2022-10-16T03:42:57;26.05;;;20.50;;
35022;SDS011;21214;44.912;8.204;2022-10-16T03:45:24;27.15;;;20.88;;
35022;SDS011;21214;44.912;8.204;2022-10-16T03:47:49;25.42;;;20.60;;
35022;SDS011;21214;44.912;8.204;2022-10-16T03:50:15;21.63;;;19.23;;
35022;SDS011;21214;44.912;8.204;2022-10-16T03:52:40;25.88;;;20.38;;
35022;SDS011;21214;44.912;8.204;2022-10-16T03:55:06;26.02;;;19.70;;
35022;SDS011;21214;44.912;8.204;2022-10-16T03:57:32;25.23;;;19.92;;
35022;SDS011;21214;44.912;8.204;2022-10-16T03:59:58;22.83;;;20.13;;
35022;SDS011;21214;44.912;8.204;2022-10-16T04:02:23;23.92;;;19.30;;
35022;SDS011;21214;44.912;8.204;2022-10-16T04:04:49;26.73;;;19.92;;
35022;SDS011;21214;44.912;8.204;2022-10-16T04:07:15;26.83;;;19.35;;
35022;SDS011;21214;44.912;8.204;2022-10-16T04:09:40;23.75;;;19.83;;
35022;SDS011;21214;44.912;8.204;2022-10-16T04:12:07;24.10;;;19.65;;
35022;SDS011;21214;44.912;8.204;2022-10-16T04:14:32;23.75;;;19.23;;
35022;SDS011;21214;44.912;8.204;2022-10-16T04:16:58;26.02;;;18.90;;
35022;SDS011;21214;44.912;8.204;2022-10-16T04:19:23;24.23;;;18.95;;
35022;SDS011;21214;44.912;8.204;2022-10-16T04:21:49;23.88;;;19.92;;
35022;SDS011;21214;44.912;8.204;2022-10-16T04:24:15;24.92;;;19.27;;
35022;SDS011;21214;44.912;8.204;2022-10-16T04:26:40;25.60;;;19.88;;
35022;SDS011;21214;44.912;8.204;2022-10-16T04:29:07;24.77;;;19.38;;
35022;SDS011;21214;44.912;8.204;2022-10-16T04:31:33;26.92;;;19.23;;
35022;SDS011;21214;44.912;8.204;2022-10-16T04:33:58;21.45;;;18.55;;
35022;SDS011;21214;44.912;8.204;2022-10-16T04:36:24;24.95;;;19.70;;
35022;SDS011;21214;44.912;8.204;2022-10-16T04:38:49;26.90;;;19.70;;
35022;SDS011;21214;44.912;8.204;2022-10-16T04:41:16;23.98;;;19.58;;
35022;SDS011;21214;44.912;8.204;2022-10-16T04:43:41;25.50;;;20.08;;
35022;SDS011;21214;44.912;8.204;2022-10-16T04:46:06;29.15;;;20.95;;
35022;SDS011;21214;44.912;8.204;2022-10-16T04:48:32;28.92;;;20.80;;
35022;SDS011;21214;44.912;8.204;2022-10-16T04:50:57;28.80;;;21.13;;
35022;SDS011;21214;44.912;8.204;2022-10-16T04:53:24;24.10;;;19.60;;
35022;SDS011;21214;44.912;8.204;2022-10-16T04:55:49;25.50;;;20.67;;
35022;SDS011;21214;44.912;8.204;2022-10-16T04:58:15;28.92;;;20.27;;
35022;SDS011;21214;44.912;8.204;2022-10-16T05:00:41;24.15;;;20.95;;
35022;SDS011;21214;44.912;8.204;2022-10-16T05:03:07;26.23;;;20.90;;
35022;SDS011;21214;44.912;8.204;2022-10-16T05:05:34;29.50;;;21.30;;
35022;SDS011;21214;44.912;8.204;2022-10-16T05:08:00;23.92;;;19.90;;
35022;SDS011;21214;44.912;8.204;2022-10-16T05:10:26;25.73;;;21.35;;
35022;SDS011;21214;44.912;8.204;2022-10-16T05:12:51;28.45;;;21.88;;
35022;SDS011;21214;44.912;8.204;2022-10-16T05:15:17;27.73;;;21.58;;
35022;SDS011;21214;44.912;8.204;2022-10-16T05:17:43;31.02;;;23.13;;
35022;SDS011;21214;44.912;8.204;2022-10-16T05:20:09;28.17;;;22.88;;
35022;SDS011;21214;44.912;8.204;2022-10-16T05:22:35;32.55;;;24.15;;
35022;SDS011;21214;44.912;8.204;2022-10-16T05:25:01;31.90;;;24.60;;
35022;SDS011;21214;44.912;8.204;2022-10-16T05:27:26;30.88;;;24.13;;
35022;SDS011;21214;44.912;8.204;2022-10-16T05:29:52;26.70;;;22.85;;
35022;SDS011;21214;44.912;8.204;2022-10-16T05:32:18;26.85;;;22.10;;
35022;SDS011;21214;44.912;8.204;2022-10-16T05:34:44;33.75;;;22.17;;
35022;SDS011;21214;44.912;8.204;2022-10-16T05:37:10;29.58;;;22.30;;
35022;SDS011;21214;44.912;8.204;2022-10-16T05:39:36;29.05;;;23.95;;
35022;SDS011;21214;44.912;8.204;2022-10-16T05:42:03;30.45;;;23.58;;
35022;SDS011;21214;44.912;8.204;2022-10-16T05:44:29;31.92;;;22.38;;
35022;SDS011;21214;44.912;8.204;2022-10-16T05:46:55;24.67;;;20.35;;
35022;SDS011;21214;44.912;8.204;2022-10-16T05:49:20;26.13;;;21.05;;
35022;SDS011;21214;44.912;8.204;2022-10-16T05:51:45;29.20;;;20.75;;
35022;SDS011;21214;44.912;8.204;2022-10-16T05:54:11;22.80;;;20.25;;
35022;SDS011;21214;44.912;8.204;2022-10-16T05:56:36;27.05;;;21.30;;
35022;SDS011;21214;44.912;8.204;2022-10-16T05:59:03;26.27;;;20.90;;
35022;SDS011;21214;44.912;8.204;2022-10-16T06:01:29;27.98;;;21.73;;
35022;SDS011;21214;44.912;8.204;2022-10-16T06:03:56;27.27;;;20.38;;
35022;SDS011;21214;44.912;8.204;2022-10-16T06:06:23;33.08;;;21.88;;
35022;SDS011;21214;44.912;8.204;2022-10-16T06:08:51;25.92;;;21.45;;
35022;SDS011;21214;44.912;8.204;2022-10-16T06:11:19;30.38;;;22.10;;
35022;SDS011;21214;44.912;8.204;2022-10-16T06:13:50;25.48;;;21.75;;
35022;SDS011;21214;44.912;8.204;2022-10-16T06:16:17;28.98;;;22.05;;
35022;SDS011;21214;44.912;8.204;2022-10-16T06:18:42;33.33;;;21.20;;
35022;SDS011;21214;44.912;8.204;2022-10-16T06:21:12;28.45;;;21.52;;
35022;SDS011;21214;44.912;8.204;2022-10-16T06:23:42;29.55;;;20.77;;
35022;SDS011;21214;44.912;8.204;2022-10-16T06:26:11;28.73;;;22.17;;
35022;SDS011;21214;44.912;8.204;2022-10-16T06:31:04;27.75;;;21.20;;
35022;SDS011;21214;44.912;8.204;2022-10-16T06:33:31;27.58;;;22.33;;
35022;SDS011;21214;44.912;8.204;2022-10-16T06:36:01;28.15;;;21.83;;
35022;SDS011;21214;44.912;8.204;2022-10-16T06:38:37;29.70;;;22.20;;
35022;SDS011;21214;44.912;8.204;2022-10-16T06:41:03;33.05;;;22.55;;
35022;SDS011;21214;44.912;8.204;2022-10-16T06:43:30;33.50;;;24.20;;
35022;SDS011;21214;44.912;8.204;2022-10-16T06:46:03;33.17;;;23.13;;
35022;SDS011;21214;44.912;8.204;2022-10-16T06:48:30;27.95;;;21.98;;
35022;SDS011;21214;44.912;8.204;2022-10-16T06:50:57;25.48;;;22.02;;
35022;SDS011;21214;44.912;8.204;2022-10-16T06:53:24;25.70;;;21.65;;
35022;SDS011;21214;44.912;8.204;2022-10-16T06:55:50;28.98;;;22.30;;
35022;SDS011;21214;44.912;8.204;2022-10-16T06:58:16;30.30;;;22.17;;
35022;SDS011;21214;44.912;8.204;2022-10-16T07:00:41;29.50;;;23.52;;
35022;SDS011;21214;44.912;8.204;2022-10-16T07:03:07;36.13;;;24.83;;
35022;SDS011;21214;44.912;8.204;2022-10-16T07:05:37;31.20;;;24.30;;
35022;SDS011;21214;44.912;8.204;2022-10-16T07:08:08;35.65;;;25.45;;
35022;SDS011;21214;44.912;8.204;2022-10-16T07:10:35;34.45;;;24.73;;
35022;SDS011;21214;44.912;8.204;2022-10-16T07:13:00;36.72;;;25.38;;
35022;SDS011;21214;44.912;8.204;2022-10-16T07:15:26;38.00;;;26.48;;
35022;SDS011;21214;44.912;8.204;2022-10-16T07:17:52;41.33;;;27.60;;
35022;SDS011;21214;44.912;8.204;2022-10-16T07:20:18;40.65;;;26.77;;
35022;SDS011;21214;44.912;8.204;2022-10-16T07:22:44;43.90;;;29.48;;
35022;SDS011;21214;44.912;8.204;2022-10-16T07:25:09;40.53;;;26.48;;
35022;SDS011;21214;44.912;8.204;2022-10-16T07:27:36;34.70;;;27.38;;
35022;SDS011;21214;44.912;8.204;2022-10-16T07:30:02;37.40;;;26.42;;
35022;SDS011;21214;44.912;8.204;2022-10-16T07:32:27;38.28;;;26.90;;
35022;SDS011;21214;44.912;8.204;2022-10-16T07:34:53;35.00;;;26.58;;
35022;SDS011;21214;44.912;8.204;2022-10-16T07:37:20;36.28;;;27.27;;
35022;SDS011;21214;44.912;8.204;2022-10-16T07:39:46;37.33;;;27.25;;
35022;SDS011;21214;44.912;8.204;2022-10-16T07:42:19;40.67;;;28.15;;
35022;SDS011;21214;44.912;8.204;2022-10-16T07:44:45;39.83;;;27.38;;
35022;SDS011;21214;44.912;8.204;2022-10-16T07:47:11;37.90;;;27.63;;
35022;SDS011;21214;44.912;8.204;2022-10-16T07:49:36;41.90;;;29.10;;
35022;SDS011;21214;44.912;8.204;2022-10-16T07:52:01;41.92;;;30.13;;
35022;SDS011;21214;44.912;8.204;2022-10-16T07:54:27;41.65;;;31.13;;
35022;SDS011;21214;44.912;8.204;2022-10-16T07:56:52;43.58;;;32.38;;
35022;SDS011;21214;44.912;8.204;2022-10-16T07:59:18;47.08;;;31.85;;
35022;SDS011;21214;44.912;8.204;2022-10-16T08:01:43;49.72;;;32.40;;
35022;SDS011;21214;44.912;8.204;2022-10-16T08:04:09;48.28;;;32.05;;
35022;SDS011;21214;44.912;8.204;2022-10-16T08:06:36;49.20;;;34.22;;
35022;SDS011;21214;44.912;8.204;2022-10-16T08:09:03;50.15;;;33.88;;
35022;SDS011;21214;44.912;8.204;2022-10-16T08:11:29;46.38;;;32.63;;
35022;SDS011;21214;44.912;8.204;2022-10-16T08:13:54;53.58;;;33.80;;
35022;SDS011;21214;44.912;8.204;2022-10-16T08:16:20;50.63;;;34.80;;
35022;SDS011;21214;44.912;8.204;2022-10-16T08:18:46;45.35;;;33.42;;
35022;SDS011;21214;44.912;8.204;2022-10-16T08:21:16;45.47;;;32.97;;
35022;SDS011;21214;44.912;8.204;2022-10-16T08:23:43;50.28;;;33.58;;
35022;SDS011;21214;44.912;8.204;2022-10-16T08:26:09;52.88;;;34.35;;
35022;SDS011;21214;44.912;8.204;2022-10-16T08:28:35;49.85;;;33.65;;
35022;SDS011;21214;44.912;8.204;2022-10-16T08:31:08;50.00;;;35.05;;
35022;SDS011;21214;44.912;8.204;2022-10-16T08:33:35;44.97;;;34.05;;
35022;SDS011;21214;44.912;8.204;2022-10-16T08:36:01;47.28;;;32.30;;
35022;SDS011;21214;44.912;8.204;2022-10-16T08:38:28;46.13;;;32.28;;
35022;SDS011;21214;44.912;8.204;2022-10-16T08:40:54;46.25;;;31.73;;
35022;SDS011;21214;44.912;8.204;2022-10-16T08:49:01;44.28;;;31.02;;
35022;SDS011;21214;44.912;8.204;2022-10-16T08:51:29;43.25;;;33.00;;
35022;SDS011;21214;44.912;8.204;2022-10-16T08:54:04;48.42;;;30.13;;
35022;SDS011;21214;44.912;8.204;2022-10-16T08:56:32;43.92;;;29.90;;
35022;SDS011;21214;44.912;8.204;2022-10-16T08:58:59;49.38;;;31.38;;
35022;SDS011;21214;44.912;8.204;2022-10-16T09:01:27;44.80;;;30.02;;
35022;SDS011;21214;44.912;8.204;2022-10-16T09:06:50;44.78;;;31.65;;
35022;SDS011;21214;44.912;8.204;2022-10-16T09:17:59;40.67;;;29.30;;
35022;SDS011;21214;44.912;8.204;2022-10-16T09:25:29;41.78;;;28.80;;
35022;SDS011;21214;44.912;8.204;2022-10-16T09:27:56;38.80;;;27.40;;
35022;SDS011;21214;44.912;8.204;2022-10-16T09:30:22;36.15;;;26.85;;
35022;SDS011;21214;44.912;8.204;2022-10-16T09:32:51;41.92;;;28.00;;
35022;SDS011;21214;44.912;8.204;2022-10-16T09:35:37;39.75;;;27.15;;
35022;SDS011;21214;44.912;8.204;2022-10-16T09:38:03;38.00;;;25.13;;
35022;SDS011;21214;44.912;8.204;2022-10-16T09:40:38;33.25;;;24.95;;
35022;SDS011;21214;44.912;8.204;2022-10-16T09:43:23;34.90;;;24.05;;
35022;SDS011;21214;44.912;8.204;2022-10-16T09:48:25;37.28;;;23.25;;
35022;SDS011;21214;44.912;8.204;2022-10-16T09:50:57;27.45;;;21.25;;
35022;SDS011;21214;44.912;8.204;2022-10-16T09:53:23;30.70;;;21.42;;
35022;SDS011;21214;44.912;8.204;2022-10-16T09:56:02;29.98;;;21.95;;
35022;SDS011;21214;44.912;8.204;2022-10-16T09:58:30;31.88;;;21.33;;
35022;SDS011;21214;44.912;8.204;2022-10-16T10:00:57;25.80;;;18.92;;
35022;SDS011;21214;44.912;8.204;2022-10-16T10:03:37;26.92;;;19.77;;
35022;SDS011;21214;44.912;8.204;2022-10-16T10:06:26;26.02;;;19.55;;
35022;SDS011;21214;44.912;8.204;2022-10-16T10:08:54;27.40;;;18.77;;
35022;SDS011;21214;44.912;8.204;2022-10-16T10:14:34;28.70;;;19.63;;
35022;SDS011;21214;44.912;8.204;2022-10-16T10:22:39;21.83;;;17.05;;
35022;SDS011;21214;44.912;8.204;2022-10-16T10:39:05;19.98;;;14.55;;
35022;SDS011;21214;44.912;8.204;2022-10-16T10:41:36;22.50;;;17.20;;
35022;SDS011;21214;44.912;8.204;2022-10-16T11:00:31;16.80;;;14.80;;
35022;SDS011;21214;44.912;8.204;2022-10-16T11:06:24;20.85;;;16.45;;
35022;SDS011;21214;44.912;8.204;2022-10-16T11:09:02;19.92;;;16.15;;
35022;SDS011;21214;44.912;8.204;2022-10-16T11:11:41;22.65;;;17.55;;
35022;SDS011;21214;44.912;8.204;2022-10-16T11:16:43;25.20;;;19.40;;
35022;SDS011;21214;44.912;8.204;2022-10-16T11:19:38;27.58;;;20.25;;
35022;SDS011;21214;44.912;8.204;2022-10-16T11:22:08;27.42;;;18.13;;
35022;SDS011;21214;44.912;8.204;2022-10-16T11:27:22;23.63;;;18.17;;
35022;SDS011;21214;44.912;8.204;2022-10-16T11:29:57;24.95;;;18.38;;
35022;SDS011;21214;44.912;8.204;2022-10-16T11:32:36;24.17;;;19.50;;
35022;SDS011;21214;44.912;8.204;2022-10-16T11:35:22;26.05;;;20.55;;
35022;SDS011;21214;44.912;8.204;2022-10-16T11:37:55;26.52;;;20.48;;
35022;SDS011;21214;44.912;8.204;2022-10-16T11:40:31;26.58;;;20.33;;
35022;SDS011;21214;44.912;8.204;2022-10-16T11:43:03;26.38;;;19.40;;
35022;SDS011;21214;44.912;8.204;2022-10-16T11:45:39;23.77;;;17.58;;
35022;SDS011;21214;44.912;8.204;2022-10-16T11:51:02;24.73;;;17.83;;
35022;SDS011;21214;44.912;8.204;2022-10-16T11:53:46;21.95;;;17.85;;
35022;SDS011;21214;44.912;8.204;2022-10-16T11:56:15;25.83;;;17.17;;
35022;SDS011;21214;44.912;8.204;2022-10-16T12:04:19;23.58;;;18.75;;
35022;SDS011;21214;44.912;8.204;2022-10-16T12:06:55;22.90;;;19.15;;
35022;SDS011;21214;44.912;8.204;2022-10-16T12:09:36;23.85;;;18.10;;
35022;SDS011;21214;44.912;8.204;2022-10-16T12:12:04;20.27;;;15.95;;
35022;SDS011;21214;44.912;8.204;2022-10-16T12:16:59;16.63;;;14.30;;
35022;SDS011;21214;44.912;8.204;2022-10-16T12:19:30;24.02;;;18.75;;
35022;SDS011;21214;44.912;8.204;2022-10-16T12:22:00;23.65;;;18.00;;
35022;SDS011;21214;44.912;8.204;2022-10-16T12:24:31;23.23;;;18.25;;
35022;SDS011;21214;44.912;8.204;2022-10-16T12:27:06;22.67;;;18.17;;
35022;SDS011;21214;44.912;8.204;2022-10-16T12:29:53;23.27;;;18.65;;
35022;SDS011;21214;44.912;8.204;2022-10-16T12:32:31;25.80;;;18.80;;
35022;SDS011;21214;44.912;8.204;2022-10-16T12:35:02;25.40;;;18.65;;
35022;SDS011;21214;44.912;8.204;2022-10-16T12:37:33;23.42;;;16.88;;
35022;SDS011;21214;44.912;8.204;2022-10-16T12:40:14;24.33;;;16.52;;
35022;SDS011;21214;44.912;8.204;2022-10-16T12:42:49;25.63;;;17.38;;
35022;SDS011;21214;44.912;8.204;2022-10-16T12:45:31;21.77;;;17.55;;
35022;SDS011;21214;44.912;8.204;2022-10-16T12:47:58;25.35;;;18.08;;
35022;SDS011;21214;44.912;8.204;2022-10-16T12:50:27;20.38;;;16.50;;
35022;SDS011;21214;44.912;8.204;2022-10-16T12:52:53;21.55;;;17.02;;
35022;SDS011;21214;44.912;8.204;2022-10-16T12:55:20;20.30;;;15.90;;
35022;SDS011;21214;44.912;8.204;2022-10-16T13:08:53;21.60;;;17.02;;
35022;SDS011;21214;44.912;8.204;2022-10-16T13:11:28;24.20;;;16.45;;
35022;SDS011;21214;44.912;8.204;2022-10-16T13:14:24;25.98;;;17.40;;
35022;SDS011;21214;44.912;8.204;2022-10-16T13:17:15;22.38;;;17.65;;
35022;SDS011;21214;44.912;8.204;2022-10-16T13:20:02;19.33;;;16.40;;
35022;SDS011;21214;44.912;8.204;2022-10-16T13:28:28;16.70;;;13.93;;
35022;SDS011;21214;44.912;8.204;2022-10-16T13:30:57;17.60;;;13.77;;
35022;SDS011;21214;44.912;8.204;2022-10-16T13:35:56;16.50;;;13.88;;
35022;SDS011;21214;44.912;8.204;2022-10-16T13:38:23;20.20;;;16.13;;
35022;SDS011;21214;44.912;8.204;2022-10-16T13:40:55;15.23;;;13.45;;
35022;SDS011;21214;44.912;8.204;2022-10-16T13:43:31;19.42;;;14.95;;
35022;SDS011;21214;44.912;8.204;2022-10-16T13:51:25;26.75;;;15.77;;
35022;SDS011;21214;44.912;8.204;2022-10-16T13:53:50;20.90;;;13.82;;
35022;SDS011;21214;44.912;8.204;2022-10-16T13:56:17;19.90;;;15.30;;
35022;SDS011;21214;44.912;8.204;2022-10-16T13:58:44;15.70;;;13.57;;
35022;SDS011;21214;44.912;8.204;2022-10-16T14:01:20;18.02;;;13.77;;
35022;SDS011;21214;44.912;8.204;2022-10-16T14:03:50;15.87;;;13.00;;
35022;SDS011;21214;44.912;8.204;2022-10-16T14:06:20;20.15;;;14.48;;
35022;SDS011;21214;44.912;8.204;2022-10-16T14:08:57;19.60;;;13.88;;
35022;SDS011;21214;44.912;8.204;2022-10-16T14:11:50;17.52;;;13.20;;
35022;SDS011;21214;44.912;8.204;2022-10-16T14:14:21;19.38;;;13.77;;
35022;SDS011;21214;44.912;8.204;2022-10-16T14:16:47;18.42;;;13.15;;
35022;SDS011;21214;44.912;8.204;2022-10-16T14:19:22;16.08;;;13.30;;
35022;SDS011;21214;44.912;8.204;2022-10-16T14:21:52;19.42;;;14.93;;
35022;SDS011;21214;44.912;8.204;2022-10-16T14:24:25;17.83;;;14.07;;
35022;SDS011;21214;44.912;8.204;2022-10-16T14:26:57;23.98;;;13.80;;
35022;SDS011;21214;44.912;8.204;2022-10-16T14:29:24;16.67;;;13.02;;
35022;SDS011;21214;44.912;8.204;2022-10-16T14:32:20;19.48;;;13.50;;
35022;SDS011;21214;44.912;8.204;2022-10-16T14:34:52;21.58;;;14.27;;
35022;SDS011;21214;44.912;8.204;2022-10-16T14:37:28;17.45;;;13.68;;
35022;SDS011;21214;44.912;8.204;2022-10-16T14:39:55;18.60;;;14.43;;
35022;SDS011;21214;44.912;8.204;2022-10-16T14:42:22;16.65;;;13.55;;
35022;SDS011;21214;44.912;8.204;2022-10-16T14:44:50;18.95;;;13.05;;
35022;SDS011;21214;44.912;8.204;2022-10-16T14:49:54;20.40;;;12.70;;
35022;SDS011;21214;44.912;8.204;2022-10-16T14:52:21;22.83;;;13.93;;
35022;SDS011;21214;44.912;8.204;2022-10-16T14:54:50;16.05;;;12.18;;
35022;SDS011;21214;44.912;8.204;2022-10-16T14:57:19;16.70;;;12.68;;
35022;SDS011;21214;44.912;8.204;2022-10-16T14:59:47;16.15;;;12.90;;
35022;SDS011;21214;44.912;8.204;2022-10-16T15:04:55;16.13;;;12.70;;
35022;SDS011;21214;44.912;8.204;2022-10-16T15:07:21;16.63;;;13.18;;
35022;SDS011;21214;44.912;8.204;2022-10-16T15:09:47;19.25;;;13.30;;
35022;SDS011;21214;44.912;8.204;2022-10-16T15:12:12;19.95;;;13.45;;
35022;SDS011;21214;44.912;8.204;2022-10-16T15:14:38;17.77;;;12.82;;
35022;SDS011;21214;44.912;8.204;2022-10-16T15:17:03;19.17;;;13.45;;
35022;SDS011;21214;44.912;8.204;2022-10-16T15:19:29;20.83;;;14.35;;
35022;SDS011;21214;44.912;8.204;2022-10-16T15:21:55;17.58;;;14.50;;
35022;SDS011;21214;44.912;8.204;2022-10-16T15:24:21;14.38;;;12.57;;
35022;SDS011;21214;44.912;8.204;2022-10-16T15:26:46;19.33;;;12.50;;
35022;SDS011;21214;44.912;8.204;2022-10-16T15:29:12;18.75;;;14.32;;
35022;SDS011;21214;44.912;8.204;2022-10-16T15:31:38;20.73;;;13.70;;
35022;SDS011;21214;44.912;8.204;2022-10-16T15:34:04;23.88;;;15.32;;
35022;SDS011;21214;44.912;8.204;2022-10-16T15:36:34;18.67;;;13.95;;
35022;SDS011;21214;44.912;8.204;2022-10-16T15:39:02;15.18;;;13.52;;
35022;SDS011;21214;44.912;8.204;2022-10-16T15:41:37;15.93;;;14.10;;
35022;SDS011;21214;44.912;8.204;2022-10-16T15:44:02;19.83;;;14.55;;
35022;SDS011;21214;44.912;8.204;2022-10-16T15:46:28;17.08;;;14.48;;
35022;SDS011;21214;44.912;8.204;2022-10-16T15:48:56;19.23;;;13.55;;
35022;SDS011;21214;44.912;8.204;2022-10-16T15:51:23;16.63;;;14.25;;
35022;SDS011;21214;44.912;8.204;2022-10-16T15:53:50;21.38;;;15.27;;
35022;SDS011;21214;44.912;8.204;2022-10-16T15:56:16;23.80;;;16.38;;
35022;SDS011;21214;44.912;8.204;2022-10-16T15:58:42;16.60;;;14.05;;
35022;SDS011;21214;44.912;8.204;2022-10-16T16:01:08;17.67;;;13.05;;
35022;SDS011;21214;44.912;8.204;2022-10-16T16:03:35;19.58;;;13.65;;
35022;SDS011;21214;44.912;8.204;2022-10-16T16:06:05;19.02;;;14.10;;
35022;SDS011;21214;44.912;8.204;2022-10-16T16:08:33;19.13;;;14.48;;
35022;SDS011;21214;44.912;8.204;2022-10-16T16:11:06;14.98;;;13.50;;
35022;SDS011;21214;44.912;8.204;2022-10-16T16:13:34;21.80;;;15.65;;
35022;SDS011;21214;44.912;8.204;2022-10-16T16:15:59;18.83;;;14.27;;
35022;SDS011;21214;44.912;8.204;2022-10-16T16:18:25;18.75;;;14.15;;
35022;SDS011;21214;44.912;8.204;2022-10-16T16:20:51;18.70;;;15.35;;
35022;SDS011;21214;44.912;8.204;2022-10-16T16:23:17;22.55;;;16.23;;
35022;SDS011;21214;44.912;8.204;2022-10-16T16:25:44;25.02;;;16.73;;
35022;SDS011;21214;44.912;8.204;2022-10-16T16:28:09;18.25;;;15.10;;
35022;SDS011;21214;44.912;8.204;2022-10-16T16:30:39;17.88;;;15.63;;
35022;SDS011;21214;44.912;8.204;2022-10-16T16:33:05;20.45;;;16.13;;
35022;SDS011;21214;44.912;8.204;2022-10-16T16:35:30;20.15;;;15.57;;
35022;SDS011;21214;44.912;8.204;2022-10-16T16:37:56;21.90;;;16.02;;
35022;SDS011;21214;44.912;8.204;2022-10-16T16:40:21;18.58;;;15.02;;
35022;SDS011;21214;44.912;8.204;2022-10-16T16:42:49;19.38;;;16.27;;